Time;durP1;ratioP1;P1;durP2;ratioP2;P2;SDS_P1;SDS_P2;PMS_P1;PMS_P2;Temp;Humidity;BMP_temperature;BMP_pressure;BME280_temperature;BME280_humidity;BME280_pressure;Samples;Min_cycle;Max_cycle;Signal;HPM_P1;HPM_P2
2022/08/19 00:01:54;;;;;;;18.02;12.77;;;;;;;;;;2215607;61;21090;-78
2022/08/19 00:04:22;;;;;;;23.02;14.27;;;;;;;;;;2214588;61;21090;-78
2022/08/19 00:06:49;;;;;;;17.80;13.07;;;;;;;;;;2434494;56;21234;-79
2022/08/19 00:09:17;;;;;;;21.20;14.87;;;;;;;;;;2434176;56;21206;-77
2022/08/19 00:11:45;;;;;;;27.25;15.95;;;;;;;;;;2239505;60;21636;-78
2022/08/19 00:14:14;;;;;;;24.33;15.65;;;;;;;;;;2239249;60;21088;-78
2022/08/19 00:16:42;;;;;;;24.12;15.77;;;;;;;;;;2462548;56;21101;-78
2022/08/19 00:19:10;;;;;;;29.12;17.02;;;;;;;;;;2239392;60;21147;-79
2022/08/19 00:21:39;;;;;;;30.15;18.05;;;;;;;;;;2464962;56;21708;-79
2022/08/19 00:24:06;;;;;;;33.10;18.15;;;;;;;;;;2465562;56;21087;-79
2022/08/19 00:26:33;;;;;;;29.92;20.35;;;;;;;;;;2240876;60;21091;-80
2022/08/19 00:29:00;;;;;;;35.40;20.98;;;;;;;;;;2241922;60;21726;-81
2022/08/19 00:31:27;;;;;;;28.85;18.50;;;;;;;;;;2466837;56;21099;-80
2022/08/19 00:33:55;;;;;;;32.78;17.95;;;;;;;;;;2241113;60;21148;-82
2022/08/19 00:36:22;;;;;;;29.83;19.73;;;;;;;;;;2241797;60;21108;-80
2022/08/19 00:38:49;;;;;;;31.37;20.67;;;;;;;;;;2241346;60;21358;-80
2022/08/19 00:41:20;;;;;;;35.50;19.45;;;;;;;;;;2466039;56;21120;-79
2022/08/19 00:43:58;;;;;;;29.42;18.85;;;;;;;;;;2242040;60;21216;-80
2022/08/19 00:46:25;;;;;;;25.75;18.52;;;;;;;;;;2241734;60;21068;-80
2022/08/19 00:48:52;;;;;;;27.27;18.17;;;;;;;;;;2465292;56;21120;-81
2022/08/19 00:51:19;;;;;;;32.17;20.65;;;;;;;;;;2466033;56;21121;-80
2022/08/19 00:53:46;;;;;;;35.95;21.77;;;;;;;;;;2241201;60;21076;-80
2022/08/19 00:56:15;;;;;;;28.30;18.98;;;;;;;;;;2241662;60;21633;-80
2022/08/19 00:58:42;;;;;;;33.78;20.75;;;;;;;;;;2463912;56;21076;-81
2022/08/19 01:01:09;;;;;;;36.22;20.27;;;;;;;;;;2465673;56;21072;-79
2022/08/19 01:03:36;;;;;;;30.27;21.20;;;;;;;;;;2465380;56;21108;-79
2022/08/19 01:06:03;;;;;;;35.90;21.37;;;;;;;;;;2465429;56;21095;-79
2022/08/19 01:08:30;;;;;;;42.13;23.23;;;;;;;;;;2465552;56;21100;-80
2022/08/19 01:11:00;;;;;;;36.05;21.92;;;;;;;;;;2241604;60;21060;-80
2022/08/19 01:13:28;;;;;;;40.17;22.25;;;;;;;;;;2241880;60;21568;-80
2022/08/19 01:15:57;;;;;;;37.38;23.23;;;;;;;;;;2240143;60;21136;-81
2022/08/19 01:18:24;;;;;;;33.08;21.67;;;;;;;;;;2465686;56;21068;-80
2022/08/19 01:20:52;;;;;;;38.40;23.77;;;;;;;;;;2241449;60;21068;-81
2022/08/19 01:23:19;;;;;;;40.80;23.00;;;;;;;;;;2465452;56;21122;-80
2022/08/19 01:25:49;;;;;;;41.63;24.20;;;;;;;;;;2465548;56;21179;-80
2022/08/19 01:28:17;;;;;;;39.00;23.58;;;;;;;;;;2241774;60;21112;-80
2022/08/19 01:30:45;;;;;;;38.33;24.23;;;;;;;;;;2465708;56;22017;-79
2022/08/19 01:33:13;;;;;;;36.17;23.55;;;;;;;;;;2240697;60;21120;-79
2022/08/19 01:35:40;;;;;;;36.00;23.10;;;;;;;;;;2239138;60;21083;-80
2022/08/19 01:38:10;;;;;;;38.95;23.92;;;;;;;;;;2240224;60;21596;-81
2022/08/19 01:40:39;;;;;;;37.10;23.27;;;;;;;;;;2240230;60;21135;-81
2022/08/19 01:43:06;;;;;;;39.88;24.25;;;;;;;;;;2241087;60;21056;-82
2022/08/19 01:45:34;;;;;;;38.53;24.92;;;;;;;;;;2240042;60;21420;-80
2022/08/19 01:48:02;;;;;;;38.42;22.83;;;;;;;;;;2241173;60;21823;-81
2022/08/19 01:50:29;;;;;;;35.80;23.27;;;;;;;;;;2240678;60;21576;-81
2022/08/19 01:52:56;;;;;;;37.53;22.85;;;;;;;;;;2239783;60;21636;-81
2022/08/19 01:55:23;;;;;;;37.85;23.67;;;;;;;;;;2240456;60;21072;-81
2022/08/19 01:57:52;;;;;;;38.75;23.75;;;;;;;;;;2241080;60;21092;-79
2022/08/19 02:00:20;;;;;;;32.10;21.62;;;;;;;;;;2240322;60;21849;-80
2022/08/19 02:02:47;;;;;;;31.10;21.40;;;;;;;;;;2240326;60;21084;-79
2022/08/19 02:05:17;;;;;;;34.53;21.37;;;;;;;;;;2240610;60;21103;-79
2022/08/19 02:07:45;;;;;;;34.28;21.65;;;;;;;;;;2464183;56;21732;-80
2022/08/19 02:10:14;;;;;;;38.05;22.65;;;;;;;;;;2240142;60;21586;-81
2022/08/19 02:12:41;;;;;;;34.65;20.70;;;;;;;;;;2464420;56;21348;-80
2022/08/19 02:15:08;;;;;;;34.00;20.30;;;;;;;;;;2239922;60;21152;-80
2022/08/19 02:17:36;;;;;;;31.70;19.40;;;;;;;;;;2240221;60;21100;-81
2022/08/19 02:20:04;;;;;;;35.45;21.70;;;;;;;;;;2240582;60;21076;-80
2022/08/19 02:22:31;;;;;;;34.95;21.70;;;;;;;;;;2240017;60;21071;-80
2022/08/19 02:24:58;;;;;;;33.63;21.27;;;;;;;;;;2240620;60;21093;-80
2022/08/19 02:27:25;;;;;;;37.40;22.52;;;;;;;;;;2240774;60;21088;-80
2022/08/19 02:29:53;;;;;;;34.55;19.75;;;;;;;;;;2464793;56;21065;-81
2022/08/19 02:32:20;;;;;;;37.22;20.80;;;;;;;;;;2241116;60;21107;-80
2022/08/19 02:34:47;;;;;;;37.97;20.77;;;;;;;;;;2240642;60;21093;-80
2022/08/19 02:40:01;;;;;;;37.20;20.58;;;;;;;;;;2240900;60;21132;-79
2022/08/19 02:42:28;;;;;;;39.72;22.62;;;;;;;;;;2241915;60;21163;-80
2022/08/19 02:44:56;;;;;;;40.67;21.02;;;;;;;;;;2241497;60;21080;-80
2022/08/19 02:47:23;;;;;;;27.65;17.52;;;;;;;;;;2464924;56;21107;-79
2022/08/19 02:49:50;;;;;;;35.28;19.33;;;;;;;;;;2240433;60;21079;-81
2022/08/19 02:52:17;;;;;;;33.42;19.98;;;;;;;;;;2464406;56;21067;-79
2022/08/19 02:54:45;;;;;;;38.30;20.45;;;;;;;;;;2241226;60;21618;-79
2022/08/19 02:57:12;;;;;;;44.47;21.95;;;;;;;;;;2240906;60;21080;-80
2022/08/19 02:59:39;;;;;;;38.00;21.92;;;;;;;;;;2241103;60;21719;-80
2022/08/19 03:02:06;;;;;;;37.47;20.55;;;;;;;;;;2241117;60;21080;-80
2022/08/19 03:04:33;;;;;;;35.70;20.60;;;;;;;;;;2464608;56;21083;-80
2022/08/19 03:07:00;;;;;;;35.35;19.12;;;;;;;;;;2463738;56;21560;-80
2022/08/19 03:09:29;;;;;;;35.50;18.90;;;;;;;;;;2241664;60;21165;-80
2022/08/19 03:11:56;;;;;;;33.00;20.02;;;;;;;;;;2240884;60;21056;-79
2022/08/19 03:14:23;;;;;;;35.78;21.00;;;;;;;;;;2241129;60;21092;-80
2022/08/19 03:16:52;;;;;;;32.85;17.40;;;;;;;;;;2240545;60;21595;-80
2022/08/19 03:19:20;;;;;;;36.17;18.75;;;;;;;;;;2240450;60;22177;-80
2022/08/19 03:21:48;;;;;;;28.50;18.02;;;;;;;;;;2239751;60;21104;-81
2022/08/19 03:24:15;;;;;;;33.90;19.62;;;;;;;;;;2240387;60;21592;-80
2022/08/19 03:26:43;;;;;;;39.85;22.08;;;;;;;;;;2239917;60;21625;-80
2022/08/19 03:29:11;;;;;;;42.50;21.17;;;;;;;;;;2464915;56;21108;-80
2022/08/19 03:31:38;;;;;;;43.38;20.50;;;;;;;;;;2241210;60;21115;-80
2022/08/19 03:34:05;;;;;;;45.20;22.23;;;;;;;;;;2240292;60;21621;-80
2022/08/19 03:36:33;;;;;;;42.60;20.45;;;;;;;;;;2464219;56;21076;-80
2022/08/19 03:39:01;;;;;;;41.42;21.65;;;;;;;;;;2464442;56;21644;-80
2022/08/19 03:41:31;;;;;;;41.22;20.40;;;;;;;;;;2464793;56;21064;-80
2022/08/19 03:43:58;;;;;;;36.95;20.37;;;;;;;;;;2240721;60;21116;-79
2022/08/19 03:46:26;;;;;;;33.38;17.92;;;;;;;;;;2240952;60;21076;-80
2022/08/19 03:48:56;;;;;;;35.92;19.02;;;;;;;;;;2240611;60;21767;-80
2022/08/19 03:51:24;;;;;;;35.88;20.40;;;;;;;;;;2240712;60;21628;-80
2022/08/19 03:53:52;;;;;;;41.67;21.50;;;;;;;;;;2240439;60;21119;-80
2022/08/19 03:56:19;;;;;;;39.03;20.77;;;;;;;;;;2238233;60;21076;-82
2022/08/19 03:58:47;;;;;;;36.08;19.08;;;;;;;;;;2239701;60;21112;-80
2022/08/19 04:01:15;;;;;;;40.50;21.05;;;;;;;;;;2463590;56;21048;-80
2022/08/19 04:03:42;;;;;;;34.60;18.50;;;;;;;;;;2239848;60;21203;-81
2022/08/19 04:06:13;;;;;;;29.77;17.45;;;;;;;;;;2239611;60;21084;-81
2022/08/19 04:08:41;;;;;;;34.33;18.80;;;;;;;;;;2240734;60;21544;-80
2022/08/19 04:11:09;;;;;;;33.92;18.25;;;;;;;;;;2463770;56;21156;-79
2022/08/19 04:13:36;;;;;;;37.53;18.83;;;;;;;;;;2240068;60;21596;-81
2022/08/19 04:16:04;;;;;;;33.83;20.00;;;;;;;;;;2239365;60;21092;-80
2022/08/19 04:18:32;;;;;;;41.37;23.45;;;;;;;;;;2463125;56;21103;-81
2022/08/19 04:21:00;;;;;;;31.12;18.45;;;;;;;;;;2463381;56;21080;-80
2022/08/19 04:23:28;;;;;;;29.25;18.12;;;;;;;;;;2464728;56;21072;-80
2022/08/19 04:25:55;;;;;;;33.83;18.02;;;;;;;;;;2240952;60;21084;-80
2022/08/19 04:28:23;;;;;;;28.87;17.00;;;;;;;;;;2242554;60;22243;-82
2022/08/19 04:30:51;;;;;;;38.92;20.70;;;;;;;;;;2243315;60;22152;-82
2022/08/19 04:33:19;;;;;;;35.72;18.35;;;;;;;;;;2467732;56;21060;-81
2022/08/19 04:35:48;;;;;;;40.85;21.23;;;;;;;;;;2466061;56;21080;-81
2022/08/19 04:38:16;;;;;;;28.48;18.55;;;;;;;;;;2241071;60;21560;-80
2022/08/19 04:43:30;;;;;;;39.65;21.33;;;;;;;;;;2242597;60;21067;-81
2022/08/19 04:45:57;;;;;;;32.95;18.40;;;;;;;;;;2467163;56;21096;-80
2022/08/19 04:48:26;;;;;;;37.42;20.83;;;;;;;;;;2242541;60;21068;-82
2022/08/19 04:50:57;;;;;;;40.65;21.75;;;;;;;;;;2243414;60;21060;-81
2022/08/19 04:53:24;;;;;;;27.48;17.25;;;;;;;;;;2467024;56;21060;-80
2022/08/19 04:55:51;;;;;;;34.47;18.45;;;;;;;;;;2242026;60;21648;-81
2022/08/19 04:58:18;;;;;;;32.78;16.67;;;;;;;;;;2242762;60;21084;-80
2022/08/19 05:00:45;;;;;;;35.92;18.73;;;;;;;;;;2242121;60;22006;-82
2022/08/19 05:03:16;;;;;;;34.00;19.60;;;;;;;;;;2239372;60;21131;-78
2022/08/19 05:05:44;;;;;;;41.03;20.33;;;;;;;;;;2464453;56;21092;-78
2022/08/19 05:08:11;;;;;;;34.83;19.02;;;;;;;;;;2239106;60;21076;-77
2022/08/19 05:10:39;;;;;;;35.53;20.00;;;;;;;;;;2240193;60;21128;-80
2022/08/19 05:13:06;;;;;;;37.45;19.62;;;;;;;;;;2239005;60;21144;-78
2022/08/19 05:15:33;;;;;;;32.83;18.05;;;;;;;;;;2240097;60;21132;-81
2022/08/19 05:23:30;;;;;;;43.28;19.30;;;;;;;;;;2241283;60;21008;-80
2022/08/19 05:25:57;;;;;;;38.38;18.83;;;;;;;;;;2241222;60;21072;-81
2022/08/19 05:28:24;;;;;;;36.25;19.42;;;;;;;;;;2241618;60;21064;-80
2022/08/19 05:30:51;;;;;;;36.10;19.90;;;;;;;;;;2241744;60;21108;-80
2022/08/19 05:33:18;;;;;;;32.53;18.58;;;;;;;;;;2241486;60;21128;-80
2022/08/19 05:35:45;;;;;;;37.80;20.27;;;;;;;;;;2240883;60;21148;-80
2022/08/19 05:38:12;;;;;;;46.37;21.50;;;;;;;;;;2241068;60;21124;-79
2022/08/19 05:40:40;;;;;;;39.38;20.12;;;;;;;;;;2241013;60;21088;-80
2022/08/19 05:43:08;;;;;;;33.22;18.60;;;;;;;;;;2464746;56;21092;-81
2022/08/19 05:45:39;;;;;;;36.60;19.17;;;;;;;;;;2241003;60;21612;-81
2022/08/19 05:48:06;;;;;;;42.20;20.42;;;;;;;;;;2241483;60;21095;-82
2022/08/19 05:50:33;;;;;;;43.03;19.90;;;;;;;;;;2464796;56;21068;-81
2022/08/19 05:53:00;;;;;;;43.35;19.27;;;;;;;;;;2241135;60;21144;-79
2022/08/19 05:55:27;;;;;;;40.50;20.35;;;;;;;;;;2240967;60;21155;-81
2022/08/19 05:57:54;;;;;;;46.40;20.60;;;;;;;;;;2464559;56;21089;-80
2022/08/19 06:00:22;;;;;;;43.45;21.85;;;;;;;;;;2463405;53;71354;-77
2022/08/19 06:02:50;;;;;;;106.85;29.37;;;;;;;;;;2556830;53;21052;-77
2022/08/19 06:05:18;;;;;;;50.97;22.40;;;;;;;;;;2306384;58;21123;-78
2022/08/19 06:07:45;;;;;;;39.55;20.23;;;;;;;;;;2544932;54;21124;-77
2022/08/19 06:10:12;;;;;;;42.08;20.23;;;;;;;;;;2545381;54;21036;-78
2022/08/19 06:12:39;;;;;;;45.47;22.15;;;;;;;;;;2307372;58;21156;-77
2022/08/19 06:15:10;;;;;;;40.28;19.48;;;;;;;;;;2546022;54;21068;-77
2022/08/19 06:17:37;;;;;;;47.03;22.37;;;;;;;;;;2307364;58;21064;-78
2022/08/19 06:20:04;;;;;;;43.95;20.55;;;;;;;;;;2307265;58;21108;-78
2022/08/19 06:22:32;;;;;;;44.05;22.75;;;;;;;;;;2307311;58;21601;-78
2022/08/19 06:24:59;;;;;;;54.88;25.08;;;;;;;;;;2307678;58;21116;-78
2022/08/19 06:27:26;;;;;;;41.55;20.17;;;;;;;;;;2306412;58;21562;-78
2022/08/19 06:29:53;;;;;;;40.83;21.50;;;;;;;;;;2307839;58;21111;-78
2022/08/19 06:32:21;;;;;;;46.92;21.42;;;;;;;;;;2307264;58;21048;-78
2022/08/19 06:34:47;;;;;;;39.88;19.55;;;;;;;;;;2307722;58;21780;-78
2022/08/19 06:37:15;;;;;;;66.25;22.77;;;;;;;;;;2545661;54;21075;-78
2022/08/19 06:39:43;;;;;;;41.63;20.15;;;;;;;;;;2546461;54;21044;-78
2022/08/19 06:42:12;;;;;;;40.15;21.83;;;;;;;;;;2307523;58;22356;-78
2022/08/19 06:44:41;;;;;;;38.80;19.87;;;;;;;;;;2306518;58;21060;-77
2022/08/19 06:47:08;;;;;;;39.22;20.37;;;;;;;;;;2307072;58;21052;-78
2022/08/19 06:49:37;;;;;;;37.45;20.05;;;;;;;;;;2545646;54;21071;-78
2022/08/19 06:52:04;;;;;;;38.17;19.67;;;;;;;;;;2307804;58;21108;-78
2022/08/19 06:54:31;;;;;;;43.78;23.38;;;;;;;;;;2306018;58;21096;-77
2022/08/19 06:57:01;;;;;;;33.45;18.58;;;;;;;;;;2306338;58;21060;-78
2022/08/19 06:59:32;;;;;;;39.25;19.75;;;;;;;;;;2307447;58;21127;-78
2022/08/19 07:02:00;;;;;;;36.13;17.83;;;;;;;;;;2540281;54;21130;-78
2022/08/19 07:04:30;;;;;;;39.70;21.30;;;;;;;;;;2301492;58;21144;-79
2022/08/19 07:07:00;;;;;;;40.15;20.98;;;;;;;;;;2301718;58;21207;-79
2022/08/19 07:09:28;;;;;;;38.97;21.58;;;;;;;;;;2302392;58;21220;-78
2022/08/19 07:11:56;;;;;;;39.83;21.00;;;;;;;;;;2539829;54;21053;-79
2022/08/19 07:14:24;;;;;;;38.35;20.52;;;;;;;;;;2302796;58;21144;-78
2022/08/19 07:16:53;;;;;;;41.85;22.17;;;;;;;;;;2301796;58;21053;-79
2022/08/19 07:19:20;;;;;;;40.33;20.98;;;;;;;;;;2302025;58;21109;-79
2022/08/19 07:21:48;;;;;;;41.97;22.60;;;;;;;;;;2538911;54;21061;-79
2022/08/19 07:24:16;;;;;;;36.13;20.05;;;;;;;;;;2538399;54;21120;-79
2022/08/19 07:26:43;;;;;;;55.45;26.42;;;;;;;;;;2301283;58;21568;-78
2022/08/19 07:29:11;;;;;;;47.55;21.90;;;;;;;;;;2301590;58;21547;-78
2022/08/19 07:31:38;;;;;;;44.45;23.27;;;;;;;;;;2301762;58;21149;-78
2022/08/19 07:34:06;;;;;;;42.38;21.00;;;;;;;;;;2300234;58;21125;-78
2022/08/19 07:36:34;;;;;;;45.80;25.33;;;;;;;;;;2536349;54;22262;-78
2022/08/19 07:39:04;;;;;;;46.95;20.37;;;;;;;;;;2538122;54;21590;-79
2022/08/19 07:41:32;;;;;;;40.70;21.37;;;;;;;;;;2300452;58;21124;-78
2022/08/19 07:44:03;;;;;;;53.33;23.48;;;;;;;;;;2301307;58;21103;-78
2022/08/19 07:46:30;;;;;;;45.97;21.98;;;;;;;;;;2300762;58;21829;-78
2022/08/19 07:48:58;;;;;;;42.92;21.65;;;;;;;;;;2301306;58;21072;-78
2022/08/19 07:51:25;;;;;;;43.08;21.75;;;;;;;;;;2538221;54;21053;-79
2022/08/19 07:53:52;;;;;;;37.92;19.95;;;;;;;;;;2301514;58;21117;-79
2022/08/19 07:56:21;;;;;;;41.75;20.30;;;;;;;;;;2300048;58;21065;-78
2022/08/19 07:58:49;;;;;;;41.75;21.30;;;;;;;;;;2300305;58;21606;-78
2022/08/19 08:01:18;;;;;;;43.78;21.80;;;;;;;;;;2299280;58;21097;-78
2022/08/19 08:09:20;;;;;;;36.88;20.33;;;;;;;;;;2301028;58;21005;-78
2022/08/19 08:11:49;;;;;;;35.17;20.48;;;;;;;;;;2539076;54;21057;-78
2022/08/19 08:14:18;;;;;;;43.63;20.35;;;;;;;;;;2301453;58;21137;-78
2022/08/19 08:16:46;;;;;;;37.90;20.62;;;;;;;;;;2301385;58;21057;-79
2022/08/19 08:19:15;;;;;;;44.70;21.55;;;;;;;;;;2300919;58;21072;-79
2022/08/19 08:21:42;;;;;;;43.97;18.80;;;;;;;;;;2301659;58;21511;-78
2022/08/19 08:24:09;;;;;;;36.70;19.83;;;;;;;;;;2302869;58;21124;-78
2022/08/19 08:26:36;;;;;;;35.75;18.02;;;;;;;;;;2301546;58;22048;-78
2022/08/19 08:29:04;;;;;;;36.17;19.90;;;;;;;;;;2302144;58;21052;-78
2022/08/19 08:31:32;;;;;;;36.70;19.27;;;;;;;;;;2302246;58;21117;-78
2022/08/19 08:33:59;;;;;;;39.60;21.10;;;;;;;;;;2303148;58;21446;-79
2022/08/19 08:36:27;;;;;;;39.30;19.92;;;;;;;;;;2301944;58;21117;-78
2022/08/19 08:38:56;;;;;;;35.47;18.85;;;;;;;;;;2303215;58;21124;-81
2022/08/19 08:41:29;;;;;;;54.10;21.35;;;;;;;;;;2540799;54;21052;-78
2022/08/19 08:43:57;;;;;;;78.10;23.58;;;;;;;;;;2301962;58;21073;-82
2022/08/19 08:46:27;;;;;;;50.53;21.98;;;;;;;;;;2302399;58;21191;-77
2022/08/19 08:48:56;;;;;;;35.15;19.00;;;;;;;;;;2302427;58;21694;-81
2022/08/19 08:51:26;;;;;;;35.78;18.37;;;;;;;;;;2539507;54;22543;-77
2022/08/19 08:53:54;;;;;;;34.88;18.48;;;;;;;;;;2302817;58;21552;-79
2022/08/19 08:56:22;;;;;;;30.77;16.95;;;;;;;;;;2540235;54;21109;-78
2022/08/19 08:58:54;;;;;;;36.35;18.52;;;;;;;;;;2302659;58;21065;-79
2022/08/19 09:01:21;;;;;;;29.85;17.20;;;;;;;;;;2540088;54;22297;-78
2022/08/19 09:03:48;;;;;;;29.42;17.52;;;;;;;;;;2539722;54;21080;-80
2022/08/19 09:06:19;;;;;;;37.00;18.95;;;;;;;;;;2302470;58;21559;-78
2022/08/19 09:08:50;;;;;;;32.80;18.35;;;;;;;;;;2302989;58;21140;-79
2022/08/19 09:11:33;;;;;;;35.65;17.67;;;;;;;;;;2539771;54;21105;-78
2022/08/19 09:14:06;;;;;;;30.65;17.35;;;;;;;;;;2539998;54;21125;-80
2022/08/19 09:16:34;;;;;;;31.02;16.27;;;;;;;;;;2539870;54;21121;-79
2022/08/19 09:19:04;;;;;;;40.75;21.37;;;;;;;;;;2302370;58;21048;-79
2022/08/19 09:21:31;;;;;;;36.53;17.40;;;;;;;;;;2302421;58;21578;-79
2022/08/19 09:23:58;;;;;;;30.02;17.58;;;;;;;;;;2302595;58;21125;-78
2022/08/19 09:26:26;;;;;;;43.15;18.70;;;;;;;;;;2302593;58;21651;-79
2022/08/19 09:28:54;;;;;;;40.42;19.30;;;;;;;;;;2540581;54;21596;-79
2022/08/19 09:31:23;;;;;;;30.77;17.62;;;;;;;;;;2540343;54;21109;-80
2022/08/19 09:33:51;;;;;;;37.63;20.05;;;;;;;;;;2540884;54;21076;-80
2022/08/19 09:36:20;;;;;;;41.13;20.08;;;;;;;;;;2302337;58;21092;-80
2022/08/19 09:38:47;;;;;;;35.33;19.25;;;;;;;;;;2540917;54;21105;-81
2022/08/19 09:41:15;;;;;;;32.85;18.58;;;;;;;;;;2302912;58;21104;-80
2022/08/19 09:43:45;;;;;;;31.05;16.95;;;;;;;;;;2542116;54;21064;-80
2022/08/19 09:46:12;;;;;;;77.22;25.58;;;;;;;;;;2304040;58;21219;-78
2022/08/19 09:48:40;;;;;;;52.20;20.77;;;;;;;;;;2541843;54;21132;-80
2022/08/19 09:51:08;;;;;;;44.63;22.58;;;;;;;;;;2304376;58;21065;-81
2022/08/19 09:53:35;;;;;;;62.80;21.92;;;;;;;;;;2542337;54;21532;-80
2022/08/19 09:56:03;;;;;;;35.38;17.27;;;;;;;;;;2304081;58;21136;-78
2022/08/19 09:58:30;;;;;;;80.43;23.67;;;;;;;;;;2540619;54;21056;-80
2022/08/19 10:00:58;;;;;;;32.58;16.30;;;;;;;;;;2304650;58;21209;-78
2022/08/19 10:03:26;;;;;;;30.95;18.37;;;;;;;;;;2304782;58;21101;-80
2022/08/19 10:05:53;;;;;;;37.33;19.05;;;;;;;;;;2542067;54;21044;-81
2022/08/19 10:08:22;;;;;;;58.03;23.90;;;;;;;;;;2542373;54;21105;-81
2022/08/19 10:10:50;;;;;;;36.03;20.05;;;;;;;;;;2303991;58;21085;-84
2022/08/19 10:13:21;;;;;;;40.63;22.65;;;;;;;;;;2303620;58;21129;-85
2022/08/19 10:15:50;;;;;;;41.00;21.02;;;;;;;;;;2302249;58;21099;-82
2022/08/19 10:18:18;;;;;;;105.05;29.60;;;;;;;;;;2541417;54;21140;-84
2022/08/19 10:20:45;;;;;;;34.47;19.55;;;;;;;;;;2303974;58;21032;-83
2022/08/19 10:23:12;;;;;;;32.88;19.80;;;;;;;;;;2303584;58;21135;-83
2022/08/19 10:25:40;;;;;;;33.00;18.98;;;;;;;;;;2304137;58;21056;-82
2022/08/19 10:28:07;;;;;;;39.00;20.88;;;;;;;;;;2542018;54;21053;-82
2022/08/19 10:30:34;;;;;;;34.15;19.85;;;;;;;;;;2303885;58;21108;-82
2022/08/19 10:33:01;;;;;;;32.30;19.65;;;;;;;;;;2541632;54;21124;-83
2022/08/19 10:35:29;;;;;;;33.55;20.30;;;;;;;;;;2540880;54;21089;-84
2022/08/19 10:37:59;;;;;;;33.05;19.35;;;;;;;;;;2538085;54;21784;-80
2022/08/19 10:40:27;;;;;;;33.92;19.37;;;;;;;;;;2300738;58;21041;-80
2022/08/19 10:42:55;;;;;;;31.80;17.95;;;;;;;;;;2538709;54;21100;-80
2022/08/19 10:45:24;;;;;;;34.33;20.70;;;;;;;;;;2300987;58;21212;-80
2022/08/19 10:47:51;;;;;;;53.40;21.62;;;;;;;;;;2538530;54;21144;-79
2022/08/19 10:53:11;;;;;;;37.38;20.85;;;;;;;;;;2246949;58;21096;-81
2022/08/19 10:58:35;;;;;;;35.40;21.95;;;;;;;;;;2203136;58;21100;-80
2022/08/19 11:01:02;;;;;;;41.90;23.55;;;;;;;;;;2540032;54;21069;-78
2022/08/19 11:03:30;;;;;;;39.10;22.87;;;;;;;;;;2539241;54;21816;-81
2022/08/19 11:06:00;;;;;;;39.83;22.70;;;;;;;;;;2301898;58;21825;-80
2022/08/19 11:08:27;;;;;;;34.42;20.75;;;;;;;;;;2302063;58;21069;-79
2022/08/19 11:11:00;;;;;;;39.20;20.98;;;;;;;;;;2302156;58;21152;-80
2022/08/19 11:13:28;;;;;;;35.58;21.90;;;;;;;;;;2538884;54;21076;-81
2022/08/19 11:15:58;;;;;;;30.62;19.23;;;;;;;;;;2301236;58;21040;-79
2022/08/19 11:18:25;;;;;;;36.38;20.65;;;;;;;;;;2540379;54;21080;-80
2022/08/19 11:20:53;;;;;;;33.47;19.10;;;;;;;;;;2303527;58;21052;-80
2022/08/19 11:23:20;;;;;;;36.25;20.75;;;;;;;;;;2302416;58;21041;-79
2022/08/19 11:28:24;;;;;;;35.83;20.05;;;;;;;;;;2469117;56;22158;-80
2022/08/19 11:30:51;;;;;;;29.67;20.23;;;;;;;;;;2491607;55;21131;-80
2022/08/19 11:33:19;;;;;;;27.87;18.05;;;;;;;;;;2262692;59;21082;-80
2022/08/19 11:35:46;;;;;;;53.85;21.98;;;;;;;;;;2489222;55;21631;-80
2022/08/19 11:38:14;;;;;;;32.65;20.15;;;;;;;;;;2490289;55;21396;-77
2022/08/19 11:40:42;;;;;;;36.63;19.30;;;;;;;;;;2492012;55;21043;-80
2022/08/19 11:43:09;;;;;;;39.03;24.02;;;;;;;;;;2263135;59;21145;-80
2022/08/19 11:45:36;;;;;;;29.30;18.83;;;;;;;;;;2493140;55;21304;-79
2022/08/19 11:48:04;;;;;;;28.20;18.30;;;;;;;;;;2264768;59;21101;-80
2022/08/19 11:50:31;;;;;;;31.12;18.37;;;;;;;;;;2494289;55;21114;-79
2022/08/19 11:52:58;;;;;;;26.42;16.60;;;;;;;;;;2264697;59;21174;-79
2022/08/19 11:55:25;;;;;;;36.58;23.17;;;;;;;;;;2491868;55;21066;-78
2022/08/19 11:57:52;;;;;;;72.43;26.20;;;;;;;;;;2490836;55;22127;-79
2022/08/19 12:00:20;;;;;;;137.48;33.85;;;;;;;;;;2262803;59;21070;-78
2022/08/19 12:02:47;;;;;;;99.10;29.20;;;;;;;;;;2278983;54;21175;-77
2022/08/19 12:05:14;;;;;;;52.53;23.10;;;;;;;;;;2238491;60;21155;-77
2022/08/19 12:07:43;;;;;;;29.90;18.35;;;;;;;;;;2255323;56;21729;-76
2022/08/19 12:10:11;;;;;;;31.35;19.33;;;;;;;;;;2238606;60;21064;-76
2022/08/19 12:12:42;;;;;;;30.33;18.17;;;;;;;;;;2313729;56;21068;-77
2022/08/19 12:15:11;;;;;;;33.30;20.35;;;;;;;;;;2238363;60;21136;-77
2022/08/19 12:17:39;;;;;;;29.75;18.35;;;;;;;;;;2238653;60;21115;-76
2022/08/19 12:20:09;;;;;;;28.30;18.45;;;;;;;;;;2238506;60;21081;-76
2022/08/19 12:22:36;;;;;;;33.05;20.80;;;;;;;;;;2278515;56;21088;-76
2022/08/19 12:25:04;;;;;;;31.87;18.80;;;;;;;;;;2364975;56;21120;-76
2022/08/19 12:27:31;;;;;;;28.17;17.98;;;;;;;;;;2440110;56;21112;-76
2022/08/19 12:30:01;;;;;;;29.92;18.65;;;;;;;;;;2366379;56;21555;-76
2022/08/19 12:32:28;;;;;;;25.02;18.35;;;;;;;;;;2239125;60;21159;-76
2022/08/19 12:34:55;;;;;;;29.87;18.02;;;;;;;;;;2267496;56;21653;-77
2022/08/19 12:37:22;;;;;;;29.67;18.15;;;;;;;;;;2238185;60;21562;-77
2022/08/19 12:39:49;;;;;;;27.92;18.55;;;;;;;;;;2238379;60;21080;-76
2022/08/19 12:42:17;;;;;;;25.77;16.95;;;;;;;;;;2237812;60;21148;-76
2022/08/19 12:44:44;;;;;;;26.30;17.52;;;;;;;;;;2375037;56;21606;-76
2022/08/19 12:47:13;;;;;;;29.58;19.62;;;;;;;;;;2236813;60;21654;-76
2022/08/19 12:49:41;;;;;;;35.55;21.48;;;;;;;;;;2238274;60;21056;-76
2022/08/19 12:52:09;;;;;;;28.60;18.83;;;;;;;;;;2237251;60;21104;-77
2022/08/19 12:54:37;;;;;;;32.08;19.65;;;;;;;;;;2238103;60;21064;-76
2022/08/19 12:57:07;;;;;;;30.65;19.55;;;;;;;;;;2237232;60;21147;-77
2022/08/19 12:59:36;;;;;;;28.02;17.77;;;;;;;;;;2238237;60;21080;-77
2022/08/19 13:02:03;;;;;;;27.02;17.10;;;;;;;;;;2252328;56;21199;-76
2022/08/19 13:04:30;;;;;;;29.00;19.20;;;;;;;;;;2237362;60;21367;-77
2022/08/19 13:06:58;;;;;;;29.55;19.10;;;;;;;;;;2237960;60;21729;-77
2022/08/19 13:09:25;;;;;;;27.85;18.67;;;;;;;;;;2238555;60;21156;-77
2022/08/19 13:11:52;;;;;;;26.30;17.08;;;;;;;;;;2238837;60;21155;-77
2022/08/19 13:14:19;;;;;;;24.75;16.65;;;;;;;;;;2238834;60;21067;-77
2022/08/19 13:16:46;;;;;;;27.30;18.05;;;;;;;;;;2238419;60;21542;-77
2022/08/19 13:19:13;;;;;;;21.45;15.50;;;;;;;;;;2238463;60;21160;-77
2022/08/19 13:21:40;;;;;;;20.27;13.93;;;;;;;;;;2318935;56;21069;-77
2022/08/19 13:24:08;;;;;;;28.73;19.92;;;;;;;;;;2238294;60;21164;-77
2022/08/19 13:26:35;;;;;;;26.52;19.30;;;;;;;;;;2259275;56;21060;-77
2022/08/19 13:34:36;;;;;;;22.98;15.32;;;;;;;;;;2238561;56;21645;-77
2022/08/19 13:37:04;;;;;;;24.25;16.83;;;;;;;;;;2286301;56;21073;-77
2022/08/19 13:39:32;;;;;;;22.73;16.58;;;;;;;;;;2237278;60;21618;-77
2022/08/19 13:42:00;;;;;;;19.80;14.70;;;;;;;;;;2463184;56;21370;-77
2022/08/19 13:44:29;;;;;;;18.62;13.93;;;;;;;;;;2302251;56;21092;-77
2022/08/19 13:47:00;;;;;;;19.77;14.30;;;;;;;;;;2293681;56;21128;-77
2022/08/19 13:49:30;;;;;;;18.08;12.43;;;;;;;;;;2238382;60;21088;-77
2022/08/19 13:51:58;;;;;;;16.67;12.23;;;;;;;;;;2238848;60;21144;-77
2022/08/19 13:54:25;;;;;;;16.20;12.43;;;;;;;;;;2237344;60;21052;-77
2022/08/19 13:56:52;;;;;;;19.42;13.35;;;;;;;;;;2239522;60;21081;-80
2022/08/19 13:59:19;;;;;;;18.65;12.65;;;;;;;;;;2240172;60;21068;-81
2022/08/19 14:01:46;;;;;;;17.73;12.75;;;;;;;;;;2239966;60;21142;-80
2022/08/19 14:04:13;;;;;;;19.00;12.20;;;;;;;;;;2239812;60;21076;-79
2022/08/19 14:06:40;;;;;;;18.33;13.40;;;;;;;;;;2239446;60;21653;-80
2022/08/19 14:09:07;;;;;;;19.48;12.88;;;;;;;;;;2239229;60;21377;-82
2022/08/19 14:11:34;;;;;;;17.15;11.65;;;;;;;;;;2239817;60;21634;-81
2022/08/19 14:14:01;;;;;;;18.48;13.48;;;;;;;;;;2259578;56;21655;-80
2022/08/19 14:16:30;;;;;;;16.45;12.37;;;;;;;;;;2240162;60;21753;-82
2022/08/19 14:18:57;;;;;;;17.02;13.43;;;;;;;;;;2240120;60;21319;-79
2022/08/19 14:21:25;;;;;;;15.38;12.30;;;;;;;;;;2239753;60;21155;-78
2022/08/19 14:23:53;;;;;;;16.17;11.95;;;;;;;;;;2239459;60;21073;-81
2022/08/19 14:26:21;;;;;;;15.68;12.20;;;;;;;;;;2239592;58;21080;-79
2022/08/19 14:28:49;;;;;;;14.15;11.35;;;;;;;;;;2238402;60;21091;-80
2022/08/19 14:31:18;;;;;;;16.77;11.57;;;;;;;;;;2239606;60;21080;-81
2022/08/19 14:33:46;;;;;;;18.33;12.98;;;;;;;;;;2240138;58;21071;-80
2022/08/19 14:36:13;;;;;;;17.70;12.88;;;;;;;;;;2239302;60;21570;-80
2022/08/19 14:38:41;;;;;;;16.05;11.18;;;;;;;;;;2243284;56;21080;-81
2022/08/19 14:41:10;;;;;;;15.35;12.05;;;;;;;;;;2239009;60;21072;-81
2022/08/19 14:43:38;;;;;;;16.05;12.40;;;;;;;;;;2239791;56;21088;-81
2022/08/19 14:46:05;;;;;;;15.52;11.70;;;;;;;;;;2238414;60;21159;-79
2022/08/19 14:48:32;;;;;;;15.85;11.18;;;;;;;;;;2237664;60;21148;-78
2022/08/19 14:50:59;;;;;;;15.85;12.95;;;;;;;;;;2238648;60;21151;-80